X  Close Metar Aviation Weather Data     EINN Shannon Airport
Temperature
7°C Temperature
6°C Dewpoint
93% Humidity



Wind
5 KM/H
3 MPH
1 M/S
3 KTS



30°
NNE
Current Conditions

Clear Clear
Pressure 1007.92 (hPa) - 29.76 (inHg)
Visibility 6.2 (mile) - 10 (km)
Airport
Airport-code EINN

Location: Shannon Airport
Distance: 177 (km)

Metar:
EINN 122300Z 03003KT CAVOK 07/06 Q1008 NOSIG

Time: 13-05-2021 00:00 IST